Time;durP1;ratioP1;P1;durP2;ratioP2;P2;SDS_P1;SDS_P2;PMS_P1;PMS_P2;Temp;Humidity;BMP_temperature;BMP_pressure;BME280_temperature;BME280_humidity;BME280_pressure;Samples;Min_cycle;Max_cycle;Signal;HPM_P1;HPM_P2
2023/06/01 00:03:46;;;;;;;7.32;3.63;;;;;;;17.36;80.55;101048.50;8320826;28;20041;-62
2023/06/01 00:07:46;;;;;;;8.55;4.07;;;;;;;17.68;77.47;101042.19;8320972;28;20038;-62
2023/06/01 00:11:47;;;;;;;8.60;3.63;;;;;;;17.72;77.39;101043.56;8297764;28;20045;-62
2023/06/01 00:15:47;;;;;;;12.00;3.45;;;;;;;17.83;76.83;101048.66;8321505;28;20530;-62
2023/06/01 00:19:48;;;;;;;9.77;4.38;;;;;;;17.99;76.21;101051.34;8321334;28;20419;-62
2023/06/01 00:23:49;;;;;;;11.00;3.17;;;;;;;18.13;75.75;101053.38;8321232;28;20057;-62
2023/06/01 00:27:49;;;;;;;9.75;3.60;;;;;;;18.22;75.35;101041.34;8321174;28;20507;-62
2023/06/01 00:31:50;;;;;;;7.20;3.78;;;;;;;18.33;74.80;101038.22;8322172;28;20045;-62
2023/06/01 00:35:51;;;;;;;11.15;3.53;;;;;;;18.32;75.31;101047.47;8322439;28;20038;-62
2023/06/01 00:39:53;;;;;;;13.38;3.95;;;;;;;18.34;75.01;101050.88;8321910;28;20072;-61
2023/06/01 00:43:53;;;;;;;8.25;3.75;;;;;;;18.23;75.81;101059.47;8321520;28;20033;-62
2023/06/01 00:47:54;;;;;;;10.10;3.60;;;;;;;18.13;76.25;101055.22;8321515;28;20048;-62
2023/06/01 00:51:55;;;;;;;7.88;3.97;;;;;;;17.92;76.93;101055.81;8319923;28;20069;-62
2023/06/01 00:55:55;;;;;;;8.00;4.05;;;;;;;17.98;77.11;101060.59;8325829;28;20045;-62
2023/06/01 00:59:57;;;;;;;8.48;3.10;;;;;;;17.93;77.03;101049.31;8327174;28;20506;-61
2023/06/01 01:03:57;;;;;;;9.45;4.05;;;;;;;17.81;77.68;101058.06;8327308;28;20079;-62
2023/06/01 01:12:33;;;;;;;9.38;4.00;;;;;;;17.63;79.16;101050.06;8352044;27;20396;-63
2023/06/01 01:16:41;;;;;;;8.38;3.95;;;;;;;17.57;79.12;101051.59;8350446;28;20041;-63
2023/06/01 01:20:44;;;;;;;8.18;4.07;;;;;;;17.48;79.47;101057.25;8329891;28;20042;-63
2023/06/01 01:25:18;;;;;;;14.93;3.58;;;;;;;17.33;80.23;101053.47;8318649;28;20045;-63
2023/06/01 01:29:23;;;;;;;10.82;3.95;;;;;;;17.26;80.53;101055.19;8310146;28;20080;-63
2023/06/01 01:33:24;;;;;;;6.93;3.80;;;;;;;17.24;80.35;101055.34;8331780;28;20066;-63
2023/06/01 01:37:25;;;;;;;7.95;3.63;;;;;;;17.26;80.44;101052.44;8317033;28;20041;-63
2023/06/01 01:41:26;;;;;;;7.55;3.70;;;;;;;17.28;79.93;101058.56;8341536;28;20652;-63
2023/06/01 01:45:27;;;;;;;7.50;3.63;;;;;;;17.30;80.05;101056.53;8350741;28;20561;-63
2023/06/01 01:49:36;;;;;;;10.50;4.15;;;;;;;17.33;80.12;101053.47;8350402;28;20393;-63
2023/06/01 01:53:40;;;;;;;6.15;3.95;;;;;;;17.28;80.11;101053.97;8322653;28;20465;-63
2023/06/01 01:57:41;;;;;;;;;;;;;;;17.23;80.24;101061.81;8316104;28;20045;-63
2023/06/01 02:01:44;;;;;;;13.02;4.32;;;;;;;17.16;80.91;101059.94;8339577;28;19948;-63
2023/06/01 02:05:45;;;;;;;8.00;3.60;;;;;;;17.05;81.08;101055.66;8316589;28;20512;-62
2023/06/01 02:09:46;;;;;;;7.25;4.10;;;;;;;16.98;81.58;101056.50;8316781;28;20037;-62
2023/06/01 02:13:48;;;;;;;12.63;4.72;;;;;;;16.92;82.24;101051.72;8332266;28;20067;-63
2023/06/01 02:17:48;;;;;;;7.32;4.00;;;;;;;16.88;82.25;101050.34;8315777;28;20048;-63
2023/06/01 02:21:49;;;;;;;9.90;4.20;;;;;;;16.85;82.70;101047.94;8305105;28;20037;-64
2023/06/01 02:25:50;;;;;;;6.07;4.30;;;;;;;16.82;83.19;101051.00;8294960;28;20065;-64
2023/06/01 02:29:50;;;;;;;10.43;4.10;;;;;;;16.68;83.62;101041.59;8294533;28;20042;-64
2023/06/01 02:33:51;;;;;;;11.13;4.20;;;;;;;16.67;84.17;101044.50;8294353;28;20038;-65
2023/06/01 02:37:51;;;;;;;11.25;4.45;;;;;;;16.60;84.90;101048.91;8294144;28;20045;-64
2023/06/01 02:41:52;;;;;;;7.22;4.18;;;;;;;16.17;86.54;101054.53;8293954;28;20042;-64
2023/06/01 02:45:55;;;;;;;10.07;4.60;;;;;;;16.18;87.19;101048.03;8294110;28;20132;-64
2023/06/01 02:49:55;;;;;;;10.57;4.72;;;;;;;16.22;87.25;101055.72;8293815;28;20121;-64
2023/06/01 02:53:56;;;;;;;11.80;5.40;;;;;;;16.19;87.76;101055.22;8293743;28;20038;-61
2023/06/01 02:57:56;;;;;;;10.77;4.72;;;;;;;16.10;88.27;101056.19;8293220;28;20038;-61
2023/06/01 03:01:56;;;;;;;11.20;5.68;;;;;;;15.95;89.20;101046.91;8293671;28;20049;-61
2023/06/01 03:05:57;;;;;;;13.57;5.80;;;;;;;15.90;89.87;101060.16;8293532;28;20184;-62
2023/06/01 03:10:17;;;;;;;13.77;6.10;;;;;;;15.71;90.18;101062.09;8265694;28;20048;-62
2023/06/01 03:14:38;;;;;;;12.60;6.07;;;;;;;15.63;91.58;101056.59;8260726;28;20069;-62
2023/06/01 03:18:38;;;;;;;21.77;6.63;;;;;;;15.73;92.05;101059.19;8260202;28;20046;-62
2023/06/01 03:22:39;;;;;;;13.38;6.82;;;;;;;15.76;93.21;101060.78;8280352;28;20137;-62
2023/06/01 03:26:40;;;;;;;15.93;8.13;;;;;;;15.68;93.66;101056.94;8292413;28;20042;-62
2023/06/01 03:30:42;;;;;;;12.85;7.82;;;;;;;15.71;93.96;101061.25;8292678;28;20176;-62
2023/06/01 03:34:42;;;;;;;16.17;7.82;;;;;;;15.69;94.65;101058.69;8290485;28;20045;-62
2023/06/01 03:38:43;;;;;;;22.15;7.80;;;;;;;15.58;95.31;101053.50;8290744;28;20054;-64
2023/06/01 03:42:47;;;;;;;19.58;8.63;;;;;;;15.45;96.73;101060.38;8311350;28;20037;-64
2023/06/01 03:46:48;;;;;;;15.98;8.98;;;;;;;15.34;97.76;101061.44;8323231;28;20057;-64
2023/06/01 03:50:48;;;;;;;21.73;10.70;;;;;;;15.31;98.45;101064.47;8303252;28;20038;-64
2023/06/01 03:54:49;;;;;;;25.67;11.18;;;;;;;15.33;98.89;101067.91;8291737;28;20049;-64
2023/06/01 03:59:10;;;;;;;29.65;11.77;;;;;;;15.28;98.68;101059.34;8291071;28;20394;-64
2023/06/01 04:03:13;;;;;;;22.05;10.80;;;;;;;15.21;99.70;101063.72;8283953;28;20518;-64
2023/06/01 04:07:14;;;;;;;24.08;11.77;;;;;;;15.21;99.78;101063.72;8288490;28;20073;-64
2023/06/01 04:11:16;;;;;;;27.52;12.77;;;;;;;15.27;99.29;101068.53;8293833;28;20133;-64
2023/06/01 04:15:19;;;;;;;26.73;13.13;;;;;;;15.22;99.45;101070.88;8290792;28;20535;-64
2023/06/01 04:19:20;;;;;;;24.92;13.25;;;;;;;15.29;99.22;101076.56;8290269;28;20042;-65
2023/06/01 04:23:29;;;;;;;32.85;14.18;;;;;;;15.33;98.55;101073.38;8309837;28;20030;-64
2023/06/01 04:27:29;;;;;;;32.67;15.07;;;;;;;15.29;98.33;101087.44;8295591;28;20065;-64
2023/06/01 04:31:32;;;;;;;28.98;14.00;;;;;;;15.35;98.12;101071.34;8283510;28;20408;-65
2023/06/01 04:35:34;;;;;;;27.60;13.95;;;;;;;15.44;97.26;101075.84;8314661;28;20037;-64
2023/06/01 04:39:35;;;;;;;29.83;15.30;;;;;;;15.43;97.13;101079.59;8320164;28;20120;-64
2023/06/01 04:43:39;;;;;;;30.88;15.63;;;;;;;15.50;97.23;101080.66;8302158;28;20511;-65
2023/06/01 04:47:40;;;;;;;29.27;15.40;;;;;;;15.56;97.05;101085.50;8283954;28;20140;-64
2023/06/01 04:51:51;;;;;;;31.38;16.30;;;;;;;15.68;96.34;101089.66;8285952;28;20422;-64
2023/06/01 04:55:53;;;;;;;32.95;15.80;;;;;;;15.80;95.73;101089.41;8288334;28;20050;-65
2023/06/01 04:59:56;;;;;;;33.55;15.43;;;;;;;16.00;94.29;101099.06;8286966;28;20095;-64
2023/06/01 05:03:58;;;;;;;32.35;14.85;;;;;;;15.88;94.41;101092.19;8285853;28;20131;-64
2023/06/01 05:07:59;;;;;;;39.45;16.85;;;;;;;15.95;93.78;101090.53;8302661;28;20138;-64
2023/06/01 05:12:01;;;;;;;33.92;16.80;;;;;;;16.08;93.74;101090.97;8301590;28;20042;-64
2023/06/01 05:16:04;;;;;;;37.13;18.38;;;;;;;16.09;92.32;101098.13;8319363;28;20121;-64
2023/06/01 05:20:08;;;;;;;35.45;18.50;;;;;;;16.07;91.73;101095.53;8304790;28;20378;-64
2023/06/01 05:24:08;;;;;;;44.53;20.02;;;;;;;16.02;92.26;101110.69;8284594;28;20172;-64
2023/06/01 05:28:10;;;;;;;40.05;20.67;;;;;;;16.06;91.56;101101.16;8285652;28;20042;-64
2023/06/01 05:32:12;;;;;;;40.63;21.13;;;;;;;15.98;91.75;101106.59;8285536;28;20041;-64
2023/06/01 05:36:13;;;;;;;44.15;23.80;;;;;;;16.09;90.86;101115.34;8284279;28;20359;-61
2023/06/01 05:40:13;;;;;;;54.25;26.58;;;;;;;16.13;91.07;101115.88;8289300;28;20038;-61
2023/06/01 05:44:14;;;;;;;66.28;29.85;;;;;;;16.01;91.10;101112.56;8318968;28;20037;-62
2023/06/01 05:48:15;;;;;;;70.30;31.58;;;;;;;16.15;90.63;101106.50;8320607;28;20526;-61
2023/06/01 05:52:19;;;;;;;71.88;33.95;;;;;;;16.29;90.45;101116.84;8303144;28;20045;-62
2023/06/01 05:56:20;;;;;;;70.28;34.83;;;;;;;16.33;90.19;101120.94;8258748;28;20085;-61
2023/06/01 06:00:21;;;;;;;78.85;38.05;;;;;;;16.38;89.96;101115.84;8257699;28;20041;-61
2023/06/01 06:04:22;;;;;;;90.38;40.95;;;;;;;16.31;89.28;101122.97;8262732;28;20042;-61
2023/06/01 06:08:23;;;;;;;88.50;41.58;;;;;;;16.30;90.19;101120.41;8265933;28;20045;-61
2023/06/01 06:12:23;;;;;;;99.10;44.83;;;;;;;16.32;89.31;101129.28;8311840;28;20037;-61
2023/06/01 06:16:24;;;;;;;105.28;47.28;;;;;;;16.03;90.08;101120.56;8328020;28;20091;-61
2023/06/01 06:20:24;;;;;;;98.53;48.28;;;;;;;16.09;91.58;101128.13;8326245;28;20033;-61
2023/06/01 06:24:25;;;;;;;107.47;47.60;;;;;;;16.30;89.89;101117.69;8295615;28;20118;-61
2023/06/01 06:28:26;;;;;;;107.40;49.25;;;;;;;16.39;89.59;101130.34;8294610;28;20478;-61
2023/06/01 06:32:26;;;;;;;108.82;49.05;;;;;;;16.43;88.47;101121.69;8294765;28;20120;-61
2023/06/01 06:36:27;;;;;;;107.10;49.17;;;;;;;16.64;87.68;101133.06;8293847;28;20065;-61
2023/06/01 06:40:27;;;;;;;111.93;52.00;;;;;;;16.69;87.12;101129.84;8295484;28;20029;-64
2023/06/01 06:44:28;;;;;;;107.65;50.83;;;;;;;16.70;86.72;101134.28;8327142;28;20466;-65
2023/06/01 06:48:29;;;;;;;112.22;50.05;;;;;;;16.53;86.67;101146.16;8326185;28;20046;-64
2023/06/01 06:52:29;;;;;;;110.68;51.42;;;;;;;16.56;87.73;101140.38;8309470;28;20053;-64
2023/06/01 06:56:30;;;;;;;117.20;52.47;;;;;;;16.69;87.55;101148.94;8293137;28;20037;-64
2023/06/01 07:00:32;;;;;;;124.65;55.45;;;;;;;16.78;88.46;101153.44;8293410;28;20065;-64
2023/06/01 07:04:32;;;;;;;120.05;56.92;;;;;;;16.64;87.21;101156.78;8293880;28;20492;-64
2023/06/01 07:08:34;;;;;;;124.70;56.20;;;;;;;16.42;86.32;101154.59;8292026;28;20529;-64
2023/06/01 07:12:35;;;;;;;119.93;56.22;;;;;;;16.22;87.54;101156.69;8297930;28;20508;-64
2023/06/01 07:16:35;;;;;;;121.28;56.72;;;;;;;16.08;87.71;101140.94;8325785;28;20447;-64
2023/06/01 07:20:35;;;;;;;129.60;58.28;;;;;;;16.52;87.08;101150.75;8323540;28;20038;-64
2023/06/01 07:24:36;;;;;;;125.57;58.30;;;;;;;16.51;86.89;101156.38;8293429;28;20061;-64
2023/06/01 07:28:36;;;;;;;129.23;58.80;;;;;;;16.30;86.00;101161.34;8292358;28;20034;-65
2023/06/01 07:32:37;;;;;;;129.55;60.20;;;;;;;16.60;87.53;101160.84;8292375;28;20469;-64
2023/06/01 07:36:40;;;;;;;135.38;59.58;;;;;;;16.27;85.72;101162.53;8292386;28;20121;-64
2023/06/01 07:40:40;;;;;;;129.20;59.30;;;;;;;16.28;86.12;101157.94;8292793;28;20137;-64
2023/06/01 07:44:40;;;;;;;136.18;61.45;;;;;;;16.75;86.26;101153.75;8292280;28;20034;-64
2023/06/01 07:48:41;;;;;;;135.77;61.92;;;;;;;16.86;84.56;101159.78;8292249;28;20046;-65
2023/06/01 07:52:42;;;;;;;132.07;59.10;;;;;;;16.98;82.83;101163.03;8292129;28;20121;-65
2023/06/01 07:56:42;;;;;;;121.05;58.58;;;;;;;16.76;82.17;101159.06;8292060;28;20041;-62
2023/06/01 08:00:44;;;;;;;128.75;59.03;;;;;;;17.03;81.81;101160.69;8291752;28;20181;-61
2023/06/01 08:04:46;;;;;;;125.07;59.78;;;;;;;17.59;81.47;101156.19;8292535;28;20054;-62
2023/06/01 08:08:49;;;;;;;117.75;57.25;;;;;;;17.47;79.67;101164.88;8306466;28;20099;-61
2023/06/01 08:12:50;;;;;;;118.35;57.22;;;;;;;17.21;79.11;101161.41;8327168;28;20187;-62
2023/06/01 08:16:52;;;;;;;121.88;56.83;;;;;;;17.09;79.35;101160.88;8330072;28;20125;-62
2023/06/01 08:20:52;;;;;;;118.18;57.75;;;;;;;17.02;79.81;101164.44;8319341;28;20053;-62
2023/06/01 08:24:53;;;;;;;117.88;58.47;;;;;;;17.39;79.72;101151.19;8291370;28;20137;-61
2023/06/01 08:28:53;;;;;;;114.25;57.00;;;;;;;17.38;78.58;101149.47;8290385;28;20088;-61
2023/06/01 08:32:55;;;;;;;117.90;58.08;;;;;;;17.79;77.38;101144.91;8291695;28;20041;-61
2023/06/01 08:36:55;;;;;;;111.53;54.70;;;;;;;18.18;76.00;101133.06;8290530;28;20436;-61
2023/06/01 08:40:57;;;;;;;111.72;56.47;;;;;;;18.20;76.66;101141.94;8290363;28;20053;-61
2023/06/01 08:44:58;;;;;;;122.28;61.45;;;;;;;18.98;74.80;101137.41;8290826;28;20048;-64
2023/06/01 08:48:59;;;;;;;109.65;56.97;;;;;;;18.96;72.78;101144.94;8290399;28;20125;-64
2023/06/01 08:53:01;;;;;;;115.53;57.78;;;;;;;18.76;73.71;101144.53;8290818;28;20038;-64
2023/06/01 08:57:06;;;;;;;123.32;61.10;;;;;;;19.12;74.53;101142.97;8289945;28;20034;-64
2023/06/01 09:01:07;;;;;;;121.03;58.58;;;;;;;19.53;76.29;101132.63;8289851;28;20038;-64
2023/06/01 09:05:08;;;;;;;104.30;56.08;;;;;;;19.99;72.31;101128.78;8290630;28;20045;-64
2023/06/01 09:09:11;;;;;;;105.13;52.95;;;;;;;19.58;69.59;101134.81;8289996;28;20038;-64
2023/06/01 09:13:11;;;;;;;101.43;53.70;;;;;;;20.09;70.60;101118.38;8313550;28;20464;-64
2023/06/01 09:17:22;;;;;;;99.13;52.60;;;;;;;19.80;70.14;101122.97;8322833;28;20033;-64
2023/06/01 09:21:22;;;;;;;102.10;53.40;;;;;;;19.71;70.23;101124.94;8314503;28;20050;-64
2023/06/01 09:25:27;;;;;;;92.50;50.92;;;;;;;20.16;68.56;101121.28;8290292;28;20053;-64
2023/06/01 09:29:27;;;;;;;;;;;;;;;20.47;67.31;101116.44;8290029;28;20045;-64
2023/06/01 09:33:28;;;;;;;84.30;47.10;;;;;;;20.27;67.03;101115.28;8295066;28;19917;-64
2023/06/01 09:37:28;;;;;;;79.20;45.40;;;;;;;20.42;67.74;101105.16;8296639;28;20084;-64
2023/06/01 09:41:55;;;;;;;81.45;44.53;;;;;;;20.86;67.43;101095.81;8306150;28;20053;-64
2023/06/01 09:46:13;;;;;;;79.45;44.13;;;;;;;21.42;63.56;101099.66;8328188;28;20041;-64
2023/06/01 09:50:36;;;;;;;79.80;43.97;;;;;;;21.12;63.67;101101.69;8328518;28;20042;-64
2023/06/01 09:54:54;;;;;;;76.35;41.65;;;;;;;22.43;62.93;101092.66;8295962;28;20096;-64
2023/06/01 09:58:58;;;;;;;71.65;40.75;;;;;;;23.36;60.13;101083.75;8295402;28;20046;-64
2023/06/01 10:02:59;;;;;;;68.18;38.45;;;;;;;23.36;58.11;101080.97;8296008;28;20053;-64
2023/06/01 10:06:59;;;;;;;72.43;39.88;;;;;;;24.16;55.46;101084.44;8295427;28;20042;-64
2023/06/01 10:11:00;;;;;;;59.92;35.10;;;;;;;25.92;56.47;101078.03;8300554;28;20045;-64
2023/06/01 10:15:03;;;;;;;58.10;35.40;;;;;;;26.71;52.41;101077.00;8328003;28;20511;-64
2023/06/01 10:19:04;;;;;;;59.13;35.65;;;;;;;27.74;52.06;101077.69;8327455;28;20415;-64
2023/06/01 10:23:06;;;;;;;55.78;33.72;;;;;;;27.41;47.93;101071.84;8305550;28;20045;-64
2023/06/01 10:27:29;;;;;;;52.58;32.90;;;;;;;26.88;48.77;101070.81;8294786;28;20037;-64
2023/06/01 10:31:42;;;;;;;48.42;29.63;;;;;;;26.62;48.09;101078.41;8294926;28;20046;-64
2023/06/01 10:48:56;;;;;;;40.92;26.83;;;;;;;28.76;47.63;101064.06;8409518;27;20442;-63
2023/06/01 10:53:30;;;;;;;41.03;25.63;;;;;;;29.19;46.99;101060.78;8401172;27;20557;-63
2023/06/01 10:57:33;;;;;;;42.17;26.27;;;;;;;28.96;45.13;101056.13;8400898;27;20040;-63
2023/06/01 11:01:38;;;;;;;35.38;22.70;;;;;;;29.43;45.97;101049.25;8399324;27;20041;-63
2023/06/01 11:09:57;;;;;;;33.15;21.17;;;;;;;27.36;46.04;101041.13;8319135;28;20401;-64
2023/06/01 11:14:09;;;;;;;31.87;18.67;;;;;;;28.54;48.00;101040.75;8288973;28;20050;-64
2023/06/01 11:18:46;;;;;;;35.33;18.38;;;;;;;28.49;45.44;101032.28;8285696;28;20277;-64
2023/06/01 11:22:47;;;;;;;33.63;19.05;;;;;;;27.30;47.32;101022.63;8285816;28;20037;-64
2023/06/01 11:26:50;;;;;;;25.20;15.52;;;;;;;27.65;48.09;101026.31;8284944;28;20488;-64
2023/06/01 11:30:51;;;;;;;28.10;14.65;;;;;;;28.11;45.78;101026.38;8278342;28;20052;-64
2023/06/01 11:34:53;;;;;;;28.38;15.20;;;;;;;27.97;46.33;101027.72;8282881;28;20045;-64
2023/06/01 11:38:56;;;;;;;22.05;12.73;;;;;;;27.78;46.22;101012.22;8282146;28;20030;-64
2023/06/01 11:42:57;;;;;;;26.77;13.32;;;;;;;27.93;45.04;101023.75;8282661;28;20046;-64
2023/06/01 11:46:58;;;;;;;29.58;14.02;;;;;;;27.50;46.58;101020.41;8281761;28;20038;-64
2023/06/01 11:51:01;;;;;;;21.98;11.20;;;;;;;28.46;45.83;101016.09;8275199;28;20461;-65
2023/06/01 11:55:02;;;;;;;18.80;11.32;;;;;;;28.06;45.96;101009.59;8282702;28;20091;-64
2023/06/01 11:59:12;;;;;;;22.17;12.25;;;;;;;27.56;46.50;100999.97;8279767;28;20052;-64
2023/06/01 12:03:13;;;;;;;22.60;11.90;;;;;;;27.66;45.52;100997.47;8282468;28;20096;-65
2023/06/01 12:07:13;;;;;;;20.40;11.15;;;;;;;25.80;48.01;101000.31;8280899;28;20066;-64
2023/06/01 12:11:16;;;;;;;20.02;10.18;;;;;;;24.16;51.25;101001.53;8282151;28;20054;-64
2023/06/01 12:15:18;;;;;;;25.05;12.18;;;;;;;23.48;53.17;100989.03;8281176;28;20052;-64
2023/06/01 12:19:19;;;;;;;22.27;11.68;;;;;;;23.00;53.29;101002.13;8271247;28;20438;-64
2023/06/01 12:23:20;;;;;;;23.95;11.77;;;;;;;22.73;56.12;100999.53;8259681;28;20105;-65
2023/06/01 12:27:20;;;;;;;23.48;12.48;;;;;;;22.76;55.15;100996.34;8259845;28;20412;-64
2023/06/01 12:31:21;;;;;;;23.20;11.63;;;;;;;22.83;54.65;100981.53;8258746;28;20050;-64
2023/06/01 12:35:23;;;;;;;21.27;10.38;;;;;;;23.06;54.56;100987.50;8259618;28;20519;-64
2023/06/01 12:39:39;;;;;;;18.60;10.55;;;;;;;23.01;53.54;100992.81;8259636;28;20192;-64
2023/06/01 12:43:49;;;;;;;18.83;11.38;;;;;;;22.79;55.64;100985.78;8259204;28;20475;-65
2023/06/01 12:47:49;;;;;;;20.02;10.43;;;;;;;22.91;55.08;100981.31;8258400;28;20145;-64
2023/06/01 12:51:50;;;;;;;17.67;10.23;;;;;;;22.98;54.35;100984.97;8254480;28;20678;-64
2023/06/01 12:55:52;;;;;;;15.25;9.38;;;;;;;22.94;55.53;100964.34;8256666;28;20158;-64
2023/06/01 12:59:52;;;;;;;19.90;8.60;;;;;;;22.95;54.37;100970.72;8256651;28;20038;-64
2023/06/01 13:03:53;;;;;;;17.57;9.37;;;;;;;22.90;54.23;100971.34;8257619;28;20559;-64
2023/06/01 13:07:54;;;;;;;19.33;9.18;;;;;;;23.32;55.46;100974.84;8251783;28;20368;-63
2023/06/01 13:11:54;;;;;;;24.35;11.10;;;;;;;23.11;55.51;100965.66;8264877;28;20058;-64
2023/06/01 13:15:55;;;;;;;16.45;9.70;;;;;;;22.81;54.03;100964.31;8227477;28;20576;-64
2023/06/01 13:19:55;;;;;;;21.83;11.13;;;;;;;22.77;54.74;100956.69;8235751;28;20076;-64
2023/06/01 13:23:56;;;;;;;21.20;9.63;;;;;;;23.08;56.01;100959.69;8255924;28;20487;-64
2023/06/01 13:27:57;;;;;;;23.70;9.75;;;;;;;23.38;54.57;100960.16;8257798;28;20085;-64
2023/06/01 13:31:57;;;;;;;18.35;9.50;;;;;;;23.27;54.12;100958.06;8255540;28;20046;-64
2023/06/01 13:35:57;;;;;;;21.92;10.73;;;;;;;23.08;54.75;100955.03;8257150;28;20532;-64
2023/06/01 13:39:58;;;;;;;22.67;11.07;;;;;;;22.89;56.46;100944.84;8254619;28;20548;-64
2023/06/01 13:43:59;;;;;;;19.65;10.35;;;;;;;23.06;53.09;100951.63;8266581;28;20050;-64
2023/06/01 13:47:59;;;;;;;28.17;11.00;;;;;;;23.29;55.35;100950.44;8250658;28;20083;-64
2023/06/01 13:51:59;;;;;;;24.13;11.48;;;;;;;23.06;54.48;100940.59;8253467;28;20983;-64
2023/06/01 13:56:00;;;;;;;23.65;11.15;;;;;;;23.06;54.14;100932.31;8254598;28;20046;-64
2023/06/01 14:00:01;;;;;;;25.90;10.02;;;;;;;23.12;53.63;100916.84;8252617;28;20084;-64
2023/06/01 14:04:03;;;;;;;16.50;8.77;;;;;;;23.40;51.47;100931.31;8269452;28;20034;-64
2023/06/01 14:08:04;;;;;;;20.05;8.55;;;;;;;23.36;52.42;100930.00;8254032;28;20045;-64
2023/06/01 14:12:05;;;;;;;18.25;10.02;;;;;;;23.27;53.28;100917.53;8272966;28;20047;-64
2023/06/01 14:16:06;;;;;;;17.88;8.98;;;;;;;23.20;53.06;100920.25;8254114;28;20452;-64
2023/06/01 14:20:08;;;;;;;15.87;9.37;;;;;;;23.43;53.83;100919.84;8254236;28;20108;-64
2023/06/01 14:24:08;;;;;;;20.55;10.85;;;;;;;23.36;52.40;100915.38;8253813;28;20356;-64
2023/06/01 14:28:09;;;;;;;19.48;8.52;;;;;;;23.35;51.39;100910.91;8253982;28;20041;-64
2023/06/01 14:32:09;;;;;;;20.75;8.85;;;;;;;23.25;51.14;100911.34;8253866;28;20413;-64
2023/06/01 14:36:09;;;;;;;19.05;8.32;;;;;;;23.49;52.68;100912.59;8254216;28;20034;-64
2023/06/01 14:40:11;;;;;;;15.25;7.40;;;;;;;23.50;53.02;100908.78;8267043;28;20044;-64
2023/06/01 14:44:12;;;;;;;18.33;8.25;;;;;;;23.55;51.31;100906.22;8252007;28;20129;-64
2023/06/01 14:48:12;;;;;;;16.17;8.23;;;;;;;23.46;51.77;100904.75;8252995;28;20038;-64
2023/06/01 14:52:13;;;;;;;16.55;8.60;;;;;;;23.35;52.15;100895.22;8253614;28;20046;-64
2023/06/01 14:56:14;;;;;;;16.35;8.18;;;;;;;23.45;51.50;100895.63;8248603;28;20046;-64
2023/06/01 15:00:16;;;;;;;14.65;8.07;;;;;;;23.34;51.60;100888.00;8252435;28;20058;-64
2023/06/01 15:04:16;;;;;;;14.63;7.35;;;;;;;23.55;53.00;100884.13;8236358;28;20509;-61
2023/06/01 15:08:20;;;;;;;14.63;7.88;;;;;;;23.66;52.93;100900.06;8253947;28;20511;-61
2023/06/01 15:12:20;;;;;;;15.63;8.50;;;;;;;23.38;52.68;100888.41;8252034;28;20092;-64
2023/06/01 15:16:21;;;;;;;16.73;8.43;;;;;;;23.30;53.14;100889.50;8252693;28;20057;-61
2023/06/01 15:20:21;;;;;;;20.02;8.93;;;;;;;23.21;54.34;100894.34;8252358;28;20659;-61
2023/06/01 15:24:22;;;;;;;19.65;9.40;;;;;;;23.17;53.52;100876.53;8252332;28;20066;-61
2023/06/01 15:28:22;;;;;;;14.70;8.83;;;;;;;23.16;53.44;100879.50;8252047;28;20133;-61
2023/06/01 15:32:22;;;;;;;17.23;9.13;;;;;;;23.06;54.50;100885.44;8257526;28;20302;-61
2023/06/01 15:36:23;;;;;;;16.77;9.07;;;;;;;23.05;54.23;100882.88;8250809;28;20077;-61
2023/06/01 15:40:23;;;;;;;13.52;7.75;;;;;;;23.24;54.92;100876.56;8250567;28;20073;-60
2023/06/01 15:44:24;;;;;;;15.73;8.07;;;;;;;23.25;53.80;100871.88;8251150;28;20081;-61
2023/06/01 15:48:24;;;;;;;10.80;7.25;;;;;;;23.38;53.40;100877.38;8249964;28;20150;-61
2023/06/01 15:52:25;;;;;;;14.73;6.75;;;;;;;23.26;52.58;100871.66;8236580;28;20527;-61
2023/06/01 15:56:25;;;;;;;16.48;7.10;;;;;;;23.15;52.16;100873.13;8254871;28;20161;-60
2023/06/01 16:00:27;;;;;;;14.20;6.72;;;;;;;23.13;51.47;100869.75;8256088;28;20729;-60
2023/06/01 16:04:28;;;;;;;13.40;5.72;;;;;;;23.12;52.71;100873.53;8257361;28;20084;-61
2023/06/01 16:08:28;;;;;;;10.43;5.50;;;;;;;22.88;53.47;100876.94;8259292;28;20046;-60
2023/06/01 16:12:29;;;;;;;12.50;6.20;;;;;;;22.68;54.53;100854.03;8280830;28;20570;-61
2023/06/01 16:16:29;;;;;;;14.38;6.20;;;;;;;22.58;53.55;100853.59;8255936;28;20042;-61
2023/06/01 16:20:30;;;;;;;13.00;6.47;;;;;;;22.61;54.06;100853.19;8252569;28;20128;-60
2023/06/01 16:24:30;;;;;;;13.43;6.97;;;;;;;22.55;53.30;100859.53;8257292;28;20173;-61
2023/06/01 16:28:31;;;;;;;17.37;8.03;;;;;;;22.70;52.82;100846.41;8255704;28;20104;-61
2023/06/01 16:32:31;;;;;;;16.70;7.50;;;;;;;22.78;53.58;100843.41;8256794;28;20277;-61
2023/06/01 16:36:32;;;;;;;14.15;7.70;;;;;;;22.90;53.02;100838.97;8256658;28;20046;-61
2023/06/01 16:40:32;;;;;;;13.52;6.78;;;;;;;23.13;54.59;100847.66;8256977;28;20810;-60
2023/06/01 16:44:33;;;;;;;12.93;7.38;;;;;;;23.16;53.81;100838.97;8256437;28;20092;-61
2023/06/01 16:48:33;;;;;;;15.13;7.47;;;;;;;22.95;53.87;100838.34;8255355;28;20089;-61
2023/06/01 16:52:34;;;;;;;16.05;8.70;;;;;;;22.78;53.68;100831.56;8252243;28;20061;-61
2023/06/01 16:56:34;;;;;;;13.93;7.15;;;;;;;22.89;55.10;100833.66;8245885;28;20382;-60
2023/06/01 17:00:34;;;;;;;18.45;7.95;;;;;;;22.95;54.02;100830.91;8234863;28;20074;-61
2023/06/01 17:04:35;;;;;;;13.88;7.45;;;;;;;22.70;54.92;100818.84;8233984;28;20482;-61
2023/06/01 17:08:35;;;;;;;16.90;8.02;;;;;;;22.45;55.68;100822.38;8229663;28;20743;-61
2023/06/01 17:12:36;;;;;;;21.50;7.68;;;;;;;22.59;55.70;100824.97;8268840;28;20375;-61
2023/06/01 17:16:36;;;;;;;16.95;7.70;;;;;;;22.42;56.18;100815.38;8231120;28;20054;-61
2023/06/01 17:20:40;;;;;;;15.68;7.80;;;;;;;22.32;56.64;100811.34;8249817;28;20133;-61
2023/06/01 17:24:40;;;;;;;14.23;6.70;;;;;;;22.18;56.64;100823.38;8255216;28;20050;-61
2023/06/01 17:28:41;;;;;;;16.15;7.90;;;;;;;22.14;57.09;100820.19;8253727;28;20523;-61
2023/06/01 17:32:41;;;;;;;18.98;8.48;;;;;;;22.12;57.18;100807.69;8244162;28;20077;-61
2023/06/01 17:36:42;;;;;;;18.42;7.78;;;;;;;22.18;57.69;100806.84;8254342;28;20121;-61
2023/06/01 17:40:42;;;;;;;17.67;7.95;;;;;;;22.16;58.04;100801.56;8251947;28;20034;-61
2023/06/01 17:44:42;;;;;;;12.25;7.47;;;;;;;22.18;57.78;100807.72;8253888;28;20108;-61
2023/06/01 17:48:43;;;;;;;15.93;8.48;;;;;;;22.05;57.31;100812.34;8255067;28;20038;-60
2023/06/01 17:52:43;;;;;;;15.32;8.15;;;;;;;22.05;58.42;100807.66;8251271;28;20034;-61
2023/06/01 17:56:44;;;;;;;18.48;8.30;;;;;;;21.83;58.89;100808.03;8253367;28;20552;-61
2023/06/01 18:00:45;;;;;;;17.17;8.15;;;;;;;21.70;60.00;100819.78;8253609;28;20437;-62
2023/06/01 18:04:45;;;;;;;17.92;8.02;;;;;;;21.63;59.91;100805.16;8253766;28;20053;-62
2023/06/01 18:08:45;;;;;;;16.35;9.23;;;;;;;21.53;60.51;100807.44;8258661;28;20125;-62
2023/06/01 18:12:46;;;;;;;14.18;8.50;;;;;;;21.51;60.30;100803.19;8254039;28;20089;-62
2023/06/01 18:16:47;;;;;;;17.40;9.00;;;;;;;21.43;60.72;100801.47;8252795;28;20344;-61
2023/06/01 18:20:47;;;;;;;16.92;8.15;;;;;;;21.41;60.73;100803.59;8249674;28;20038;-61
2023/06/01 18:24:48;;;;;;;19.80;8.30;;;;;;;21.35;60.98;100809.91;8235419;28;20470;-61
2023/06/01 18:28:48;;;;;;;16.52;7.35;;;;;;;21.35;61.19;100809.91;8253472;28;20042;-64
2023/06/01 18:32:48;;;;;;;18.35;7.22;;;;;;;21.24;60.80;100802.19;8253158;28;20433;-64
2023/06/01 18:36:49;;;;;;;12.93;7.05;;;;;;;21.17;61.00;100806.81;8253085;28;20313;-63
2023/06/01 18:40:49;;;;;;;12.13;6.85;;;;;;;21.05;61.39;100797.44;8252137;28;20398;-64
2023/06/01 18:44:50;;;;;;;13.88;7.15;;;;;;;20.92;62.21;100803.63;8253113;28;20416;-64
2023/06/01 18:48:50;;;;;;;12.07;6.80;;;;;;;20.83;63.37;100804.00;8251446;28;20501;-64